Time;durP1;ratioP1;P1;durP2;ratioP2;P2;SDS_P1;SDS_P2;PMS_P1;PMS_P2;Temp;Humidity;BMP_temperature;BMP_pressure;BME280_temperature;BME280_humidity;BME280_pressure;Samples;Min_cycle;Max_cycle;Signal;HPM_P1;HPM_P2
2022/08/26 00:02:40;;;;;;;7.87;6.73;;;24.10;37.50;;;;;;10559169;28;20230;-76
2022/08/26 00:07:43;;;;;;;7.57;6.77;;;24.10;37.10;;;;;;10546742;28;20234;-75
2022/08/26 00:12:48;;;;;;;9.97;8.00;;;24.00;37.00;;;;;;10542802;28;20222;-76
2022/08/26 00:17:52;;;;;;;7.93;7.17;;;24.00;37.70;;;;;;10553324;28;20234;-76
2022/08/26 00:22:56;;;;;;;7.67;6.87;;;24.00;37.40;;;;;;10544248;28;20219;-76
2022/08/26 00:28:00;;;;;;;7.20;6.45;;;23.90;37.40;;;;;;10545408;28;20226;-75
2022/08/26 00:33:04;;;;;;;7.50;6.83;;;23.90;37.70;;;;;;10548250;28;20229;-75
2022/08/26 00:38:09;;;;;;;9.67;7.80;;;23.90;37.50;;;;;;10549215;28;20228;-76
2022/08/26 00:43:15;;;;;;;7.93;7.10;;;23.80;37.80;;;;;;10553026;28;20223;-75
2022/08/26 00:48:24;;;;;;;8.57;7.63;;;23.80;38.10;;;;;;10548309;28;20723;-76
2022/08/26 00:53:31;;;;;;;8.03;7.33;;;23.80;38.50;;;;;;10543684;28;20722;-76
2022/08/26 00:58:38;;;;;;;8.60;7.53;;;23.80;38.50;;;;;;10550864;28;20230;-76
2022/08/26 01:03:44;;;;;;;8.97;7.60;;;23.80;38.90;;;;;;10545004;28;20742;-75
2022/08/26 01:08:47;;;;;;;8.70;7.30;;;23.70;38.20;;;;;;10558325;28;20227;-75
2022/08/26 01:13:54;;;;;;;7.97;7.00;;;23.70;38.00;;;;;;10558515;28;20237;-76
2022/08/26 01:19:02;;;;;;;9.97;7.47;;;23.60;38.70;;;;;;10554350;28;20231;-76
2022/08/26 01:24:08;;;;;;;8.57;7.67;;;23.60;39.10;;;;;;10556501;28;20230;-76
2022/08/26 01:29:17;;;;;;;7.40;6.70;;;23.60;38.80;;;;;;10561487;28;20223;-76
2022/08/26 01:34:25;;;;;;;10.33;7.47;;;23.50;38.60;;;;;;10553342;28;20310;-76
2022/08/26 01:39:30;;;;;;;8.10;7.30;;;23.40;38.60;;;;;;10552293;28;20223;-76
2022/08/26 01:44:39;;;;;;;7.40;6.70;;;23.40;38.80;;;;;;10549777;28;20246;-75
2022/08/26 01:49:45;;;;;;;6.83;6.23;;;23.30;38.80;;;;;;10562516;28;20239;-76
2022/08/26 01:54:51;;;;;;;7.47;6.57;;;23.20;38.70;;;;;;10554166;28;20223;-76
2022/08/26 01:59:59;;;;;;;8.90;7.17;;;23.20;39.30;;;;;;10548742;28;20721;-76
2022/08/26 02:05:06;;;;;;;8.10;7.27;;;23.20;39.30;;;;;;10560282;28;20797;-75
2022/08/26 02:10:12;;;;;;;7.37;6.67;;;23.20;39.30;;;;;;10544582;28;20231;-76
2022/08/26 02:15:15;;;;;;;8.10;7.30;;;23.20;39.30;;;;;;10552524;28;20305;-76
2022/08/26 02:20:20;;;;;;;7.43;6.83;;;23.20;39.00;;;;;;10555030;28;20315;-75
2022/08/26 02:25:31;;;;;;;6.73;5.90;;;23.20;39.40;;;;;;10550419;28;20224;-75
2022/08/26 02:30:35;;;;;;;8.10;7.30;;;23.10;39.20;;;;;;10553179;28;20238;-76
2022/08/26 02:35:40;;;;;;;8.60;7.80;;;23.10;39.20;;;;;;10551404;28;20230;-76
2022/08/26 02:40:44;;;;;;;8.63;7.67;;;23.00;39.10;;;;;;10550786;28;20245;-75
2022/08/26 02:45:50;;;;;;;8.83;7.20;;;22.90;39.10;;;;;;10550856;28;20238;-76
2022/08/26 02:50:53;;;;;;;7.83;7.13;;;22.70;38.90;;;;;;10553197;28;20235;-75
2022/08/26 02:55:57;;;;;;;11.00;7.57;;;22.60;39.20;;;;;;10557486;28;20231;-76
2022/08/26 03:01:02;;;;;;;7.93;7.23;;;22.60;39.70;;;;;;10549323;28;20229;-75
2022/08/26 03:06:07;;;;;;;8.60;7.70;;;22.50;39.30;;;;;;10548204;28;20961;-76
2022/08/26 03:11:12;;;;;;;7.53;6.83;;;22.40;39.40;;;;;;10557828;28;20227;-75
2022/08/26 03:16:15;;;;;;;8.03;6.87;;;22.40;40.30;;;;;;10556710;28;20234;-76
2022/08/26 03:21:19;;;;;;;7.57;6.93;;;22.30;39.80;;;;;;10552304;28;20764;-76
2022/08/26 03:26:25;;;;;;;7.40;6.70;;;22.30;40.00;;;;;;10553673;28;20231;-75
2022/08/26 03:31:28;;;;;;;7.47;6.87;;;22.30;40.30;;;;;;10544024;28;20703;-75
2022/08/26 03:36:32;;;;;;;6.50;6.00;;;22.40;40.00;;;;;;10544289;28;20283;-76
2022/08/26 03:41:39;;;;;;;7.67;6.87;;;22.40;40.00;;;;;;10561775;28;20230;-76
2022/08/26 03:46:43;;;;;;;7.97;7.23;;;22.40;40.50;;;;;;10557939;28;20239;-75
2022/08/26 03:51:46;;;;;;;7.90;7.17;;;22.50;40.90;;;;;;10547537;28;20273;-76
2022/08/26 03:56:51;;;;;;;7.60;6.83;;;22.40;40.10;;;;;;10552290;28;20264;-76
2022/08/26 04:01:55;;;;;;;8.00;7.30;;;22.50;40.50;;;;;;10551033;28;20310;-76
2022/08/26 04:06:59;;;;;;;7.90;7.10;;;22.40;40.10;;;;;;10555161;28;20219;-75
2022/08/26 04:12:05;;;;;;;7.97;7.17;;;22.40;40.40;;;;;;10550660;28;20980;-76
2022/08/26 04:17:08;;;;;;;7.67;7.03;;;22.40;40.70;;;;;;10556997;28;20703;-76
2022/08/26 04:22:11;;;;;;;7.40;6.70;;;22.30;40.20;;;;;;10560217;28;20227;-75
2022/08/26 04:27:16;;;;;;;6.80;6.17;;;22.30;40.10;;;;;;10548448;28;20229;-76
2022/08/26 04:32:19;;;;;;;7.37;6.67;;;22.30;40.30;;;;;;10540733;28;20238;-76
2022/08/26 04:37:23;;;;;;;8.07;7.10;;;22.20;40.00;;;;;;10549918;28;20223;-76
2022/08/26 04:42:28;;;;;;;10.03;7.93;;;22.20;40.20;;;;;;10554571;28;20231;-76
2022/08/26 04:47:31;;;;;;;8.13;7.37;;;22.20;40.90;;;;;;10564357;28;20235;-76
2022/08/26 04:52:35;;;;;;;8.80;8.00;;;22.10;40.40;;;;;;10554162;28;20314;-76
2022/08/26 04:57:40;;;;;;;7.90;7.20;;;22.00;40.60;;;;;;10551766;28;20222;-76
2022/08/26 05:02:43;;;;;;;7.63;6.83;;;21.90;41.20;;;;;;10562103;28;20234;-76
2022/08/26 05:07:46;;;;;;;7.70;6.93;;;21.90;40.90;;;;;;10563754;28;20236;-76
2022/08/26 05:12:53;;;;;;;8.60;7.80;;;21.90;40.70;;;;;;10557749;28;20219;-75
2022/08/26 05:17:57;;;;;;;8.67;7.77;;;21.90;41.40;;;;;;10552987;28;20216;-76
2022/08/26 05:23:03;;;;;;;8.47;7.57;;;21.90;41.10;;;;;;10560779;28;20227;-76
2022/08/26 05:28:08;;;;;;;9.13;8.23;;;21.80;41.30;;;;;;10549169;28;20714;-75
2022/08/26 05:33:12;;;;;;;6.93;6.33;;;21.80;42.20;;;;;;10559949;28;20238;-76
2022/08/26 05:38:17;;;;;;;10.87;8.63;;;21.80;41.70;;;;;;10550606;28;20815;-76
2022/08/26 05:43:22;;;;;;;9.50;8.60;;;21.90;42.40;;;;;;10549759;28;20227;-76
2022/08/26 05:48:25;;;;;;;8.80;8.03;;;21.90;42.70;;;;;;10549948;28;20581;-76
2022/08/26 05:53:28;;;;;;;9.17;8.40;;;22.00;42.20;;;;;;10559814;28;20246;-76
2022/08/26 05:58:35;;;;;;;9.53;8.60;;;22.00;42.30;;;;;;10554755;28;20247;-76
2022/08/26 06:03:40;;;;;;;9.40;8.20;;;22.10;43.20;;;;;;10552316;28;20234;-75
2022/08/26 06:08:44;;;;;;;9.33;8.47;;;22.10;43.00;;;;;;10558599;28;20250;-75
2022/08/26 06:13:52;;;;;;;10.50;9.43;;;22.20;43.00;;;;;;10550968;28;20223;-76
2022/08/26 06:18:55;;;;;;;10.17;9.17;;;22.20;43.60;;;;;;10549224;28;20231;-75
2022/08/26 06:29:26;;;;;;;10.10;9.13;;;22.30;43.70;;;;;;10552042;28;20273;-76
2022/08/26 06:34:30;;;;;;;10.13;9.20;;;22.40;44.20;;;;;;10560702;28;20792;-76
2022/08/26 06:39:33;;;;;;;12.57;11.27;;;22.50;43.90;;;;;;10548611;28;20233;-76
2022/08/26 06:44:38;;;;;;;11.67;10.57;;;22.50;43.90;;;;;;10552084;28;20258;-76
2022/08/26 06:49:43;;;;;;;10.50;9.57;;;22.50;44.60;;;;;;10557324;28;20255;-76
2022/08/26 06:54:46;;;;;;;11.30;10.20;;;22.60;44.00;;;;;;10548726;28;20288;-76
2022/08/26 06:59:50;;;;;;;13.90;12.50;;;22.70;44.10;;;;;;10550290;28;20698;-76
2022/08/26 07:04:54;;;;;;;12.87;11.77;;;22.80;45.00;;;;;;10550038;28;20226;-77
2022/08/26 07:09:58;;;;;;;15.30;13.80;;;22.90;44.60;;;;;;10550790;28;20236;-76
2022/08/26 07:15:05;;;;;;;19.00;16.80;;;22.90;44.70;;;;;;10559880;28;20894;-76
2022/08/26 07:20:10;;;;;;;16.50;14.80;;;23.10;45.60;;;;;;10557940;28;20591;-76
2022/08/26 07:25:13;;;;;;;17.33;15.63;;;23.20;45.10;;;;;;10556981;28;20306;-76
2022/08/26 07:30:18;;;;;;;16.27;14.67;;;23.30;45.10;;;;;;10542285;28;21218;-76
2022/08/26 07:35:22;;;;;;;15.37;13.97;;;23.50;45.90;;;;;;10553882;28;21403;-76
2022/08/26 07:40:25;;;;;;;14.17;12.80;;;23.60;45.30;;;;;;10540882;28;20231;-76
2022/08/26 07:45:30;;;;;;;15.33;13.70;;;23.70;45.30;;;;;;10557345;28;20234;-76
2022/08/26 07:50:33;;;;;;;14.90;13.20;;;23.80;45.90;;;;;;10546522;28;20242;-76
2022/08/26 07:55:52;;;;;;;14.27;12.73;;;24.00;45.50;;;;;;10552135;28;20242;-76
2022/08/26 08:00:57;;;;;;;14.43;12.00;;;24.10;45.30;;;;;;10550685;28;20742;-76
2022/08/26 08:06:00;;;;;;;12.30;11.30;;;24.30;45.90;;;;;;10551211;28;20234;-76
2022/08/26 08:11:04;;;;;;;12.20;11.00;;;24.40;45.20;;;;;;10556237;28;20788;-76
2022/08/26 08:16:09;;;;;;;12.17;11.07;;;24.60;45.40;;;;;;10542166;28;20223;-76
2022/08/26 08:21:14;;;;;;;10.93;9.93;;;24.70;45.80;;;;;;10547911;28;20216;-76
2022/08/26 08:26:26;;;;;;;11.77;10.40;;;24.90;44.90;;;;;;10549680;28;20231;-76
2022/08/26 08:31:33;;;;;;;10.93;9.83;;;25.00;45.00;;;;;;10550230;28;20578;-76
2022/08/26 08:36:57;;;;;;;9.50;8.73;;;25.20;45.30;;;;;;10552055;28;20253;-76
2022/08/26 08:42:27;;;;;;;9.83;8.80;;;25.40;44.70;;;;;;10552676;28;20254;-76
2022/08/26 08:47:35;;;;;;;10.10;9.10;;;25.50;44.80;;;;;;10543689;28;20234;-76
2022/08/26 08:52:43;;;;;;;9.17;8.23;;;25.70;44.50;;;;;;10555657;28;20227;-75
2022/08/26 08:58:01;;;;;;;9.53;8.53;;;25.80;44.30;;;;;;10544873;28;20624;-75
2022/08/26 09:03:18;;;;;;;9.40;8.50;;;26.00;44.80;;;;;;10554097;28;20581;-76
2022/08/26 09:08:28;;;;;;;9.97;8.97;;;26.20;44.70;;;;;;10539846;28;20682;-75
2022/08/26 09:13:31;;;;;;;11.43;8.80;;;26.40;44.40;;;;;;10551202;28;20235;-76
2022/08/26 09:18:57;;;;;;;9.63;7.93;;;26.60;44.20;;;;;;10550415;28;20223;-76
2022/08/26 09:24:01;;;;;;;9.13;8.10;;;26.80;44.10;;;;;;10547175;28;20227;-76
2022/08/26 09:29:07;;;;;;;9.43;8.53;;;27.00;43.90;;;;;;10556091;28;20585;-75
2022/08/26 09:34:16;;;;;;;8.80;7.77;;;27.20;42.90;;;;;;10551018;28;20234;-75
2022/08/26 09:39:30;;;;;;;7.70;7.00;;;27.40;42.50;;;;;;10549112;28;20774;-76
2022/08/26 09:44:34;;;;;;;7.83;7.13;;;27.70;42.30;;;;;;10551980;28;20227;-76
2022/08/26 09:49:40;;;;;;;8.43;7.70;;;27.90;41.80;;;;;;10559606;28;20227;-76
2022/08/26 09:54:44;;;;;;;9.93;7.70;;;28.10;42.20;;;;;;10555215;28;20272;-76
2022/08/26 09:59:49;;;;;;;8.33;7.53;;;28.30;41.60;;;;;;10552415;28;20344;-76
2022/08/26 10:04:57;;;;;;;9.53;7.57;;;28.60;41.30;;;;;;10553730;28;20254;-76
2022/08/26 10:10:15;;;;;;;8.37;7.47;;;28.80;39.70;;;;;;10548120;28;20223;-75
2022/08/26 10:15:20;;;;;;;8.53;6.93;;;29.00;39.50;;;;;;10557340;28;20226;-75
2022/08/26 10:20:28;;;;;;;10.50;7.30;;;29.30;39.00;;;;;;10554907;28;20242;-75
2022/08/26 10:25:37;;;;;;;12.33;7.50;;;29.50;37.90;;;;;;10555206;28;20231;-76
2022/08/26 10:30:50;;;;;;;8.33;7.33;;;29.70;37.50;;;;;;10554532;28;20262;-76
2022/08/26 10:35:57;;;;;;;7.33;6.63;;;29.80;36.70;;;;;;10543672;28;20235;-76
2022/08/26 10:41:06;;;;;;;8.53;6.63;;;29.90;36.90;;;;;;10548089;28;20270;-76
2022/08/26 10:46:15;;;;;;;7.80;7.00;;;30.00;36.60;;;;;;10546853;28;20226;-76
2022/08/26 10:51:25;;;;;;;8.40;6.67;;;30.00;36.40;;;;;;10549818;28;20230;-76
2022/08/26 10:56:38;;;;;;;9.20;6.67;;;30.00;35.30;;;;;;10549234;28;20601;-76
2022/08/26 11:01:49;;;;;;;11.47;6.83;;;29.90;35.00;;;;;;10549181;28;20227;-76
2022/08/26 11:07:27;;;;;;;9.83;6.60;;;29.90;34.90;;;;;;10553062;28;20225;-76
2022/08/26 11:12:56;;;;;;;12.20;6.93;;;29.80;34.90;;;;;;10554544;28;20295;-75
2022/08/26 11:18:02;;;;;;;10.60;6.57;;;29.70;35.00;;;;;;10547014;28;20342;-75
2022/08/26 11:23:36;;;;;;;9.77;7.33;;;29.60;35.10;;;;;;10561435;28;20299;-76
2022/08/26 11:28:43;;;;;;;9.70;7.27;;;29.50;35.40;;;;;;10551094;28;20315;-76
2022/08/26 11:33:48;;;;;;;12.13;7.20;;;29.40;35.40;;;;;;10546312;28;20632;-75
2022/08/26 11:38:54;;;;;;;10.83;7.20;;;29.30;35.80;;;;;;10546394;28;20743;-77
2022/08/26 11:44:01;;;;;;;11.47;7.50;;;29.20;36.30;;;;;;10554108;28;20297;-76
2022/08/26 11:49:06;;;;;;;12.37;7.37;;;29.10;36.70;;;;;;10545477;28;20747;-76
2022/08/26 11:54:12;;;;;;;10.27;7.23;;;29.00;36.80;;;;;;10558121;28;20238;-76
2022/08/26 11:59:22;;;;;;;9.77;6.93;;;29.00;36.70;;;;;;10551104;28;20223;-76
2022/08/26 12:04:30;;;;;;;8.70;7.40;;;28.90;36.90;;;;;;10551056;28;20234;-76
2022/08/26 12:09:35;;;;;;;7.83;6.83;;;28.90;36.50;;;;;;10554050;28;20305;-76
2022/08/26 12:14:41;;;;;;;7.33;6.70;;;28.90;36.60;;;;;;10544064;28;20236;-76
2022/08/26 12:19:44;;;;;;;9.17;7.07;;;28.90;36.60;;;;;;10548660;28;20224;-75
2022/08/26 12:24:51;;;;;;;9.77;7.13;;;29.00;36.50;;;;;;10549172;28;20219;-75
2022/08/26 12:30:05;;;;;;;8.67;6.53;;;29.00;36.40;;;;;;10552887;28;20687;-75
2022/08/26 12:35:13;;;;;;;7.93;6.83;;;29.00;35.80;;;;;;10551153;28;20258;-76
2022/08/26 12:40:39;;;;;;;11.90;7.33;;;29.10;36.30;;;;;;10549773;28;20232;-76
2022/08/26 12:45:56;;;;;;;10.07;6.83;;;29.20;36.60;;;;;;10554293;28;20231;-76
2022/08/26 12:51:00;;;;;;;9.13;6.47;;;29.20;35.90;;;;;;10552858;28;20779;-76
2022/08/26 12:56:19;;;;;;;10.53;7.40;;;29.30;35.80;;;;;;10559348;28;20238;-77
2022/08/26 13:01:24;;;;;;;7.43;6.67;;;29.40;35.20;;;;;;10561444;28;20227;-76
2022/08/26 13:06:30;;;;;;;8.30;7.43;;;29.40;34.50;;;;;;10561501;28;20319;-76
2022/08/26 13:11:54;;;;;;;13.63;7.17;;;29.50;34.70;;;;;;10552938;28;20228;-76
2022/08/26 13:16:59;;;;;;;10.03;7.70;;;29.60;34.80;;;;;;10556829;28;20230;-77
2022/08/26 13:22:02;;;;;;;12.43;7.77;;;29.70;34.50;;;;;;10567267;28;20241;-75
2022/08/26 13:27:08;;;;;;;8.73;6.80;;;29.80;35.00;;;;;;10555423;28;20782;-76
2022/08/26 13:32:13;;;;;;;8.73;7.10;;;29.80;34.70;;;;;;10560040;28;20763;-76
2022/08/26 13:37:18;;;;;;;11.07;7.20;;;29.90;34.00;;;;;;10555712;28;20233;-76
2022/08/26 13:42:22;;;;;;;9.93;6.87;;;30.00;34.10;;;;;;10561781;28;20264;-76
2022/08/26 13:47:26;;;;;;;10.97;7.20;;;30.20;33.80;;;;;;10561288;28;20238;-76
2022/08/26 13:52:30;;;;;;;9.17;7.00;;;30.30;33.00;;;;;;10551843;28;20228;-77
2022/08/26 13:57:33;;;;;;;10.27;6.77;;;30.40;33.60;;;;;;10545869;28;20234;-76
2022/08/26 14:02:37;;;;;;;10.33;7.40;;;30.50;33.00;;;;;;10560483;28;20235;-76
2022/08/26 14:07:41;;;;;;;11.47;7.57;;;30.50;31.90;;;;;;10547867;28;20227;-76
2022/08/26 14:12:44;;;;;;;10.20;7.10;;;30.60;32.50;;;;;;10557674;28;20957;-76
2022/08/26 14:17:49;;;;;;;7.70;6.87;;;30.70;32.00;;;;;;10554490;28;20590;-76
2022/08/26 14:22:53;;;;;;;9.67;6.70;;;30.70;32.00;;;;;;10550122;28;20246;-76
2022/08/26 14:28:17;;;;;;;9.73;7.00;;;30.90;32.10;;;;;;10542990;28;20243;-76
2022/08/26 14:33:25;;;;;;;11.53;6.97;;;31.00;31.80;;;;;;10557319;28;20216;-76
2022/08/26 14:38:28;;;;;;;9.33;5.97;;;31.00;30.30;;;;;;10548073;28;20227;-76
2022/08/26 14:43:32;;;;;;;6.93;5.70;;;31.10;30.70;;;;;;10550679;28;20234;-76
2022/08/26 14:48:36;;;;;;;5.67;5.13;;;31.20;30.00;;;;;;10554896;28;20227;-76
2022/08/26 14:59:00;;;;;;;5.93;5.03;;;31.20;29.60;;;;;;10542590;28;20995;-75
2022/08/26 15:04:04;;;;;;;8.03;5.33;;;31.30;29.10;;;;;;10556878;28;20230;-76
2022/08/26 15:09:08;;;;;;;8.17;5.10;;;31.30;28.30;;;;;;10553197;28;20222;-76
2022/08/26 15:14:12;;;;;;;10.67;7.53;;;31.30;28.90;;;;;;10557655;28;20223;-76
2022/08/26 15:19:24;;;;;;;8.93;7.50;;;31.40;30.50;;;;;;10549934;28;20764;-76
2022/08/26 15:24:28;;;;;;;9.03;7.50;;;31.40;30.70;;;;;;10554162;28;20230;-76
2022/08/26 15:29:31;;;;;;;9.47;7.73;;;31.40;30.60;;;;;;10554927;28;20609;-76
2022/08/26 15:34:39;;;;;;;9.07;8.00;;;31.40;31.00;;;;;;10551837;28;20665;-76
2022/08/26 15:39:43;;;;;;;10.90;8.30;;;31.30;30.80;;;;;;10556753;28;20222;-76
2022/08/26 15:44:46;;;;;;;9.73;8.03;;;31.30;30.70;;;;;;10550990;28;20225;-76
2022/08/26 15:49:51;;;;;;;9.83;8.20;;;31.20;30.90;;;;;;10549081;28;20223;-77
2022/08/26 15:54:54;;;;;;;10.80;8.47;;;31.10;30.60;;;;;;10550421;28;20245;-76
2022/08/26 15:59:57;;;;;;;10.30;7.73;;;31.10;30.80;;;;;;10554800;28;20231;-76
2022/08/26 16:05:03;;;;;;;10.37;8.20;;;31.10;31.20;;;;;;10548438;28;20306;-75
2022/08/26 16:10:07;;;;;;;9.60;7.27;;;31.10;30.70;;;;;;10539011;28;20242;-76
2022/08/26 16:15:12;;;;;;;9.47;7.93;;;31.10;30.80;;;;;;10557287;28;20231;-76
2022/08/26 16:20:16;;;;;;;9.10;8.30;;;31.10;31.00;;;;;;10552935;28;20237;-77
2022/08/26 16:25:20;;;;;;;11.50;8.27;;;31.10;30.90;;;;;;10556786;28;20687;-76
2022/08/26 16:30:23;;;;;;;9.70;8.03;;;31.10;31.20;;;;;;10548552;28;20254;-77
2022/08/26 16:35:28;;;;;;;9.63;7.87;;;31.10;31.00;;;;;;10549273;28;20232;-76
2022/08/26 16:40:31;;;;;;;10.40;8.17;;;31.00;30.60;;;;;;10553875;28;20227;-76
2022/08/26 16:45:36;;;;;;;8.07;7.27;;;30.90;30.70;;;;;;10556028;28;20227;-76
2022/08/26 16:50:45;;;;;;;8.80;7.30;;;30.90;30.80;;;;;;10555159;28;20593;-76
2022/08/26 16:55:49;;;;;;;10.07;7.73;;;30.90;30.60;;;;;;10554897;28;20228;-76
2022/08/26 17:00:52;;;;;;;8.93;7.87;;;30.80;30.90;;;;;;10552531;28;20242;-76
2022/08/26 17:05:57;;;;;;;8.73;7.63;;;30.70;30.90;;;;;;10549706;28;20857;-76
2022/08/26 17:11:00;;;;;;;9.63;8.23;;;30.60;30.90;;;;;;10544644;28;20230;-75
2022/08/26 17:16:06;;;;;;;8.43;7.30;;;30.50;31.10;;;;;;10549171;28;20215;-75
2022/08/26 17:21:13;;;;;;;8.17;7.27;;;30.40;31.30;;;;;;10549517;28;20231;-77
2022/08/26 17:26:16;;;;;;;8.97;8.17;;;30.30;31.70;;;;;;10552716;28;20229;-76
2022/08/26 17:31:20;;;;;;;10.60;8.17;;;30.20;31.70;;;;;;10547302;28;20223;-76
2022/08/26 17:36:25;;;;;;;13.37;8.27;;;30.00;31.50;;;;;;10546988;28;20251;-75
2022/08/26 17:41:30;;;;;;;10.37;8.63;;;29.90;31.50;;;;;;10553656;28;20322;-75
2022/08/26 17:46:34;;;;;;;9.40;8.50;;;29.70;31.30;;;;;;10555959;28;20211;-75
2022/08/26 17:51:41;;;;;;;9.27;8.37;;;29.40;32.00;;;;;;10553589;28;20227;-76
2022/08/26 17:56:44;;;;;;;8.37;7.30;;;29.10;32.80;;;;;;10554700;28;20237;-76
2022/08/26 18:01:48;;;;;;;9.93;6.43;;;28.80;32.10;;;;;;10558215;28;20576;-76
2022/08/26 18:06:52;;;;;;;6.40;5.20;;;28.60;31.50;;;;;;10558682;28;20276;-76
2022/08/26 18:11:55;;;;;;;5.67;4.90;;;28.30;31.10;;;;;;10560547;28;20236;-75
2022/08/26 18:16:59;;;;;;;6.20;4.53;;;28.10;31.50;;;;;;10557296;28;20238;-75
2022/08/26 18:22:04;;;;;;;5.10;4.60;;;27.90;31.60;;;;;;10542997;28;20257;-76
2022/08/26 18:27:07;;;;;;;5.20;4.63;;;27.70;31.80;;;;;;10550899;28;20231;-76
2022/08/26 18:32:10;;;;;;;7.00;4.10;;;27.60;32.00;;;;;;10549076;28;20215;-76
2022/08/26 18:37:15;;;;;;;4.63;4.10;;;27.50;32.10;;;;;;10541571;28;20223;-77
2022/08/26 18:42:19;;;;;;;5.30;3.33;;;27.40;31.80;;;;;;10554617;28;20227;-76
2022/08/26 18:47:22;;;;;;;4.10;3.73;;;27.30;31.90;;;;;;10555010;28;21325;-76
2022/08/26 18:52:27;;;;;;;3.80;3.50;;;27.30;32.20;;;;;;10557855;28;20254;-76
2022/08/26 18:57:30;;;;;;;4.17;3.50;;;27.10;32.10;;;;;;10565911;28;20235;-76
2022/08/26 19:02:33;;;;;;;4.57;3.53;;;27.10;32.00;;;;;;10553326;28;20239;-76
2022/08/26 19:07:39;;;;;;;5.63;3.33;;;27.00;32.10;;;;;;10556939;28;20314;-76
2022/08/26 19:12:43;;;;;;;4.73;3.60;;;27.00;32.30;;;;;;10561834;28;20314;-76
2022/08/26 19:17:46;;;;;;;3.97;3.57;;;26.90;32.40;;;;;;10554856;28;20231;-76
2022/08/26 19:22:51;;;;;;;4.37;3.97;;;26.90;32.50;;;;;;10552210;28;20231;-76
2022/08/26 19:27:54;;;;;;;5.13;3.77;;;26.90;32.70;;;;;;10553766;28;20249;-76
2022/08/26 19:32:57;;;;;;;4.20;3.87;;;26.80;32.70;;;;;;10551914;28;20222;-76
2022/08/26 19:38:03;;;;;;;5.03;4.30;;;26.80;32.80;;;;;;10552140;28;20293;-75
2022/08/26 19:43:07;;;;;;;4.50;3.90;;;26.80;32.80;;;;;;10557918;28;20575;-76
2022/08/26 19:48:14;;;;;;;5.83;4.00;;;26.60;32.30;;;;;;10559041;28;20306;-76
2022/08/26 19:53:18;;;;;;;3.80;3.50;;;26.40;32.50;;;;;;10547819;28;20600;-76
2022/08/26 19:58:21;;;;;;;3.90;3.60;;;26.30;32.80;;;;;;10557199;28;20231;-75
2022/08/26 20:03:26;;;;;;;3.60;3.37;;;26.20;33.10;;;;;;10560354;28;20622;-76
2022/08/26 20:08:30;;;;;;;5.67;4.10;;;26.10;33.30;;;;;;10546530;28;20241;-76
2022/08/26 20:13:33;;;;;;;4.70;4.17;;;26.00;33.70;;;;;;10546752;28;20228;-75
2022/08/26 20:24:13;;;;;;;3.60;3.30;;;26.00;33.40;;;;;;10451379;28;20250;-76
2022/08/26 20:29:18;;;;;;;3.40;3.10;;;25.90;33.30;;;;;;10553995;28;20221;-76
2022/08/26 20:34:22;;;;;;;3.63;2.90;;;25.80;33.40;;;;;;10542784;28;20239;-75
2022/08/26 20:39:28;;;;;;;3.67;3.20;;;25.70;33.60;;;;;;10561202;28;20242;-75
2022/08/26 20:44:31;;;;;;;4.10;3.10;;;25.70;33.70;;;;;;10547671;28;20246;-75
2022/08/26 20:49:35;;;;;;;3.57;3.27;;;25.70;33.90;;;;;;10552999;28;20234;-76
2022/08/26 20:54:40;;;;;;;4.40;2.97;;;25.70;33.90;;;;;;10548000;28;20260;-76
2022/08/26 20:59:43;;;;;;;3.60;3.30;;;25.60;33.90;;;;;;10545318;28;20248;-76
2022/08/26 21:04:46;;;;;;;4.13;3.10;;;25.60;33.80;;;;;;10551555;28;21104;-75
2022/08/26 21:09:51;;;;;;;4.17;3.87;;;25.60;34.00;;;;;;10549619;28;20255;-76
2022/08/26 21:14:54;;;;;;;3.43;3.13;;;25.40;34.40;;;;;;10549784;28;20316;-74
2022/08/26 21:19:57;;;;;;;5.03;3.50;;;25.30;34.40;;;;;;10558260;28;20246;-76
2022/08/26 21:25:02;;;;;;;5.97;4.40;;;25.20;34.60;;;;;;10558604;28;20226;-76
2022/08/26 21:30:06;;;;;;;5.03;4.43;;;25.10;35.40;;;;;;10559021;28;20249;-75
2022/08/26 21:35:10;;;;;;;3.67;3.33;;;25.10;35.60;;;;;;10557331;28;20593;-76
2022/08/26 21:40:15;;;;;;;4.33;3.10;;;24.90;35.10;;;;;;10564422;28;20740;-76
2022/08/26 21:45:18;;;;;;;3.53;3.23;;;24.80;35.20;;;;;;10558204;28;20218;-76
2022/08/26 21:50:21;;;;;;;3.80;3.10;;;24.60;35.20;;;;;;10556672;28;20242;-76
2022/08/26 21:55:26;;;;;;;4.13;3.13;;;24.50;35.50;;;;;;10550343;28;20246;-76
2022/08/26 22:00:29;;;;;;;3.10;2.80;;;24.40;36.10;;;;;;10560043;28;20585;-76
2022/08/26 22:05:32;;;;;;;3.77;3.33;;;24.30;35.80;;;;;;10559392;28;20224;-75
2022/08/26 22:10:38;;;;;;;4.27;3.50;;;24.10;35.90;;;;;;10556671;28;20231;-76
2022/08/26 22:15:41;;;;;;;3.30;3.00;;;24.10;37.10;;;;;;10555871;28;20238;-76
2022/08/26 22:20:45;;;;;;;3.33;3.03;;;24.00;36.50;;;;;;10557262;28;20224;-75
2022/08/26 22:25:50;;;;;;;3.53;3.20;;;23.80;36.50;;;;;;10554888;28;20233;-75
2022/08/26 22:30:55;;;;;;;3.63;3.33;;;23.80;37.50;;;;;;10540130;28;20238;-76
2022/08/26 22:35:58;;;;;;;3.23;2.73;;;23.70;36.90;;;;;;10557726;28;20233;-75
2022/08/26 22:41:02;;;;;;;3.40;3.10;;;23.60;37.00;;;;;;10555963;28;20235;-76
2022/08/26 22:46:15;;;;;;;3.97;3.33;;;23.60;37.70;;;;;;10559277;28;20298;-76
2022/08/26 22:51:18;;;;;;;3.37;3.07;;;23.60;37.50;;;;;;10554402;28;20227;-76
2022/08/26 22:56:23;;;;;;;4.30;3.57;;;23.60;37.50;;;;;;10553865;28;21805;-75
2022/08/26 23:01:26;;;;;;;3.07;2.80;;;23.50;38.10;;;;;;10559594;28;20227;-76
2022/08/26 23:06:29;;;;;;;4.03;3.33;;;23.50;37.70;;;;;;10554501;28;20597;-76
2022/08/26 23:11:35;;;;;;;3.47;3.17;;;23.40;37.80;;;;;;10558398;28;20242;-75
2022/08/26 23:16:40;;;;;;;4.53;3.37;;;23.20;38.70;;;;;;10556622;28;20232;-76
2022/08/26 23:21:43;;;;;;;3.50;3.30;;;23.10;38.60;;;;;;10554261;28;20250;-75
2022/08/26 23:26:48;;;;;;;3.90;3.50;;;23.00;38.40;;;;;;10553627;28;20219;-75
2022/08/26 23:31:51;;;;;;;3.70;3.40;;;22.90;39.10;;;;;;10547790;28;20247;-75
2022/08/26 23:36:55;;;;;;;3.57;3.27;;;22.90;39.10;;;;;;10554013;28;20251;-75
2022/08/26 23:42:01;;;;;;;3.80;3.10;;;22.90;39.10;;;;;;10553732;28;20250;-76
2022/08/26 23:47:05;;;;;;;3.47;3.17;;;22.90;39.10;;;;;;10548491;28;20219;-76
2022/08/26 23:57:30;;;;;;;3.67;3.07;;;22.90;39.10;;;;;;10544718;28;20605;-75
